createdAt,value
2019-01-04T00:00:43.372Z,4.65
2019-01-04T00:03:46.416Z,9.50
2019-01-04T00:06:52.265Z,5.72
2019-01-04T00:09:53.870Z,5.45
2019-01-04T00:12:56.558Z,6.60
2019-01-04T00:15:59.339Z,5.97
2019-01-04T00:19:03.400Z,8.88
2019-01-04T00:22:05.928Z,6.75
2019-01-04T00:25:08.717Z,6.70
2019-01-04T00:28:14.976Z,8.10
2019-01-04T00:31:19.159Z,6.30
2019-01-04T00:34:22.548Z,6.58
2019-01-04T00:37:29.396Z,6.40
2019-01-04T00:40:34.430Z,6.08
2019-01-04T00:43:36.939Z,5.92
2019-01-04T00:46:40.558Z,6.25
2019-01-04T00:49:47.429Z,6.30
2019-01-04T00:52:51.695Z,6.75
2019-01-04T00:56:08.554Z,6.72
2019-01-04T00:59:38.216Z,6.12
2019-01-04T01:02:51.240Z,6.40
2019-01-04T01:06:04.262Z,5.95
2019-01-04T01:09:17.555Z,6.25
2019-01-04T01:12:30.318Z,5.55
2019-01-04T01:15:47.441Z,10.63
2019-01-04T01:19:00.712Z,6.55
2019-01-04T01:22:12.967Z,6.42
2019-01-04T01:25:30.090Z,7.33
2019-01-04T01:28:56.432Z,6.55
2019-01-04T01:32:16.105Z,6.95
2019-01-04T01:35:48.339Z,7.80
2019-01-04T01:39:20.552Z,6.53
2019-01-04T01:42:40.743Z,7.30
2019-01-04T01:45:53.514Z,7.53
2019-01-04T01:49:16.007Z,8.30
2019-01-04T01:52:26.985Z,7.35
2019-01-04T01:55:31.064Z,8.40
2019-01-04T01:58:34.860Z,6.85
2019-01-04T02:01:37.385Z,7.10
2019-01-04T02:04:40.170Z,6.90
2019-01-04T02:07:43.212Z,7.67
2019-01-04T02:10:46.503Z,7.53
2019-01-04T02:13:49.036Z,10.03
2019-01-04T02:16:51.815Z,8.95
2019-01-04T02:19:54.346Z,7.47
2019-01-04T02:22:57.897Z,8.75
2019-01-04T02:26:00.679Z,7.17
2019-01-04T02:29:03.721Z,7.05
2019-01-04T02:32:07.529Z,7.50
2019-01-04T02:35:10.322Z,7.37
2019-01-04T02:38:13.118Z,6.53
2019-01-04T02:41:15.879Z,7.35
2019-01-04T02:44:18.919Z,7.20
2019-01-04T02:47:21.961Z,6.28
2019-01-04T02:50:24.488Z,6.30
2019-01-04T02:53:27.278Z,6.87
2019-01-04T02:56:33.130Z,7.28
2019-01-04T02:59:35.917Z,11.63
2019-01-04T03:02:38.442Z,7.05
2019-01-04T03:05:40.970Z,7.85
2019-01-04T03:08:46.570Z,7.70
2019-01-04T03:11:50.384Z,8.00
2019-01-04T03:14:53.159Z,6.47
2019-01-04T03:17:56.200Z,5.95
2019-01-04T03:20:58.735Z,6.78
2019-01-04T03:24:01.517Z,6.15
2019-01-04T03:27:08.136Z,6.53
2019-01-04T03:30:10.922Z,8.15
2019-01-04T03:33:13.711Z,5.87
2019-01-04T03:36:16.232Z,8.13
2019-01-04T03:39:18.767Z,7.55
2019-01-04T03:42:21.289Z,12.00
2019-01-04T03:45:23.818Z,6.45
2019-01-04T03:48:22.700Z,7.20
2019-01-04T03:51:25.549Z,12.80
2019-01-04T03:54:24.678Z,7.20
2019-01-04T03:57:27.275Z,6.00
2019-01-04T04:00:30.571Z,6.50
2019-01-04T04:03:33.355Z,7.62
2019-01-04T04:06:36.136Z,9.18
2019-01-04T04:09:39.945Z,8.65
2019-01-04T04:12:42.735Z,7.62
2019-01-04T04:15:46.026Z,12.33
2019-01-04T04:18:49.064Z,9.05
2019-01-04T04:21:51.850Z,6.80
2019-01-04T04:24:54.890Z,6.65
2019-01-04T04:28:00.488Z,7.10
2019-01-04T04:31:04.040Z,8.48
2019-01-04T04:34:07.081Z,6.37
2019-01-04T04:37:09.863Z,6.58
2019-01-04T04:40:12.396Z,7.08
2019-01-04T04:43:14.921Z,9.78
2019-01-04T04:46:17.706Z,8.28
2019-01-04T04:49:20.744Z,7.20
2019-01-04T04:52:23.272Z,8.03
2019-01-04T04:55:26.319Z,9.23
2019-01-04T04:58:31.662Z,7.55
2019-01-04T05:01:34.699Z,7.12
2019-01-04T05:04:37.488Z,7.65
2019-01-04T05:07:40.270Z,7.95
2019-01-04T05:10:43.308Z,10.05
2019-01-04T05:13:46.858Z,8.58
2019-01-04T05:16:49.390Z,12.93
2019-01-04T05:19:52.430Z,6.70
2019-01-04T05:22:54.952Z,7.42
2019-01-04T05:25:57.735Z,8.28
2019-01-04T05:29:00.778Z,7.78
2019-01-04T05:32:03.572Z,7.62
2019-01-04T05:35:06.089Z,7.20
2019-01-04T05:38:09.387Z,7.03
2019-01-04T05:41:12.170Z,7.28
2019-01-04T05:44:14.441Z,6.65
2019-01-04T05:47:16.970Z,8.28
2019-01-04T05:50:19.496Z,9.65
2019-01-04T05:53:22.023Z,6.67
2019-01-04T05:56:25.837Z,6.72
2019-01-04T05:59:28.622Z,6.92
2019-01-04T06:02:28.584Z,7.20
2019-01-04T06:05:31.368Z,6.15
2019-01-04T06:08:34.153Z,7.90
2019-01-04T06:11:37.201Z,7.20
2019-01-04T06:14:44.075Z,6.10
2019-01-04T06:17:46.864Z,6.50
2019-01-04T06:20:50.670Z,6.78
2019-01-04T06:23:53.192Z,6.90
2019-01-04T06:26:55.722Z,7.90
2019-01-04T06:29:58.247Z,6.55
2019-01-04T06:33:01.032Z,5.58
2019-01-04T06:36:03.563Z,5.87
2019-01-04T06:39:06.090Z,6.62
2019-01-04T06:42:08.619Z,8.30
2019-01-04T06:45:07.367Z,5.75
2019-01-04T06:48:10.604Z,8.38
2019-01-04T06:51:13.387Z,7.10
2019-01-04T06:54:16.172Z,7.62
2019-01-04T06:57:18.955Z,6.22
2019-01-04T07:00:24.298Z,8.08
2019-01-04T07:03:23.437Z,6.80
2019-01-04T07:06:26.281Z,5.50
2019-01-04T07:09:28.810Z,5.60
2019-01-04T07:12:31.369Z,5.35
2019-01-04T07:15:34.120Z,6.08
2019-01-04T07:18:36.649Z,5.83
2019-01-04T07:21:39.432Z,8.08
2019-01-04T07:24:41.962Z,5.53
2019-01-04T07:27:44.743Z,9.68
2019-01-04T07:30:47.532Z,5.65
2019-01-04T07:33:50.311Z,5.28
2019-01-04T07:36:53.095Z,5.65
2019-01-04T07:39:55.881Z,8.95
2019-01-04T07:42:58.665Z,5.92
2019-01-04T07:46:01.706Z,5.62
2019-01-04T07:49:04.744Z,6.33
2019-01-04T07:52:07.786Z,6.45
2019-01-04T07:55:11.339Z,6.33
2019-01-04T07:58:15.914Z,6.33
2019-01-04T08:01:18.696Z,10.75
2019-01-04T08:04:21.736Z,5.72
2019-01-04T08:07:24.522Z,6.40
2019-01-04T08:10:27.053Z,5.90
2019-01-04T08:13:30.862Z,7.35
2019-01-04T08:16:29.546Z,6.35
2019-01-04T08:19:32.074Z,6.65
2019-01-04T08:22:34.604Z,6.60
2019-01-04T08:25:38.411Z,6.55
2019-01-04T08:28:41.450Z,7.03
2019-01-04T08:31:43.975Z,6.33
2019-01-04T08:34:46.762Z,6.50
2019-01-04T08:37:49.289Z,6.00
2019-01-04T08:40:52.587Z,5.17
2019-01-04T08:43:56.648Z,6.20
2019-01-04T08:46:59.175Z,6.37
2019-01-04T08:50:01.960Z,9.13
2019-01-04T08:53:05.769Z,5.67
2019-01-04T08:56:08.807Z,6.47
2019-01-04T08:59:11.382Z,6.95
2019-01-04T09:02:14.887Z,7.37
2019-01-04T09:05:17.419Z,6.12
2019-01-04T09:08:16.617Z,6.60
2019-01-04T09:11:19.146Z,7.58
2019-01-04T09:14:21.937Z,6.28
2019-01-04T09:17:24.717Z,6.33
2019-01-04T09:20:23.914Z,5.95
2019-01-04T09:23:26.958Z,10.53
2019-01-04T09:26:29.480Z,6.30
2019-01-04T09:29:32.775Z,6.42
2019-01-04T09:32:35.560Z,7.33
2019-01-04T09:35:38.088Z,7.70
2019-01-04T09:38:41.127Z,7.85
2019-01-04T09:42:13.105Z,9.38
2019-01-04T09:45:16.135Z,7.65
2019-01-04T09:48:19.948Z,9.10
2019-01-04T09:51:23.241Z,8.60
2019-01-04T09:54:26.794Z,7.40
2019-01-04T09:57:29.320Z,8.73
2019-01-04T10:00:32.121Z,7.37
2019-01-04T10:03:34.640Z,6.83
2019-01-04T10:06:37.190Z,6.70
2019-01-04T10:09:40.200Z,7.37
2019-01-04T10:12:43.243Z,6.40
2019-01-04T10:15:47.048Z,7.70
2019-01-04T10:18:50.088Z,7.03
2019-01-04T10:21:52.875Z,7.37
2019-01-04T10:24:55.401Z,7.83
2019-01-04T10:28:01.779Z,6.67
2019-01-04T10:31:04.808Z,7.22
2019-01-04T10:34:07.593Z,8.23
2019-01-04T10:37:10.381Z,8.50
2019-01-04T10:40:12.648Z,8.75
2019-01-04T10:43:11.532Z,8.30
2019-01-04T10:46:14.122Z,9.85
2019-01-04T10:49:16.648Z,10.43
2019-01-04T10:52:19.433Z,8.45
2019-01-04T10:55:22.985Z,8.03
2019-01-04T10:58:25.773Z,7.83
2019-01-04T11:01:28.556Z,7.53
2019-01-04T11:04:25.431Z,6.65
2019-01-04T11:07:27.720Z,7.70
2019-01-04T11:10:30.504Z,7.92
2019-01-04T11:13:33.291Z,7.95
2019-01-04T11:16:35.826Z,9.13
2019-01-04T11:19:38.605Z,10.45
2019-01-04T11:22:58.792Z,10.28
2019-01-04T11:26:11.814Z,8.10
2019-01-04T11:29:25.864Z,8.83
2019-01-04T11:32:39.656Z,9.35
2019-01-04T11:35:49.611Z,8.28
2019-01-04T11:39:02.632Z,8.98
2019-01-04T11:42:28.458Z,7.97
2019-01-04T11:45:48.650Z,8.35
2019-01-04T11:49:11.661Z,9.00
2019-01-04T11:52:24.684Z,7.58
2019-01-04T11:55:27.721Z,7.50
2019-01-04T11:58:30.248Z,8.60
2019-01-04T12:01:34.571Z,7.40
2019-01-04T12:04:37.353Z,7.35
2019-01-04T12:07:39.881Z,8.78
2019-01-04T12:10:42.665Z,7.42
2019-01-04T12:13:45.449Z,6.78
2019-01-04T12:16:48.232Z,7.22
2019-01-04T12:19:51.020Z,7.20
2019-01-04T12:22:55.340Z,8.25
2019-01-04T12:25:57.865Z,9.40
2019-01-04T12:29:00.392Z,7.25
2019-01-04T12:32:03.177Z,6.40
2019-01-04T12:35:05.975Z,6.20
2019-01-04T12:38:08.746Z,7.08
2019-01-04T12:41:12.039Z,7.10
2019-01-04T12:44:14.836Z,7.08
2019-01-04T12:47:17.357Z,5.67
2019-01-04T12:50:20.136Z,5.83
2019-01-04T12:53:24.202Z,5.78
2019-01-04T12:56:26.736Z,6.28
2019-01-04T12:59:30.028Z,6.33
2019-01-04T13:02:34.101Z,6.97
2019-01-04T13:05:51.470Z,6.47
2019-01-04T13:08:54.251Z,6.20
2019-01-04T13:11:52.525Z,5.92
2019-01-04T13:14:55.213Z,5.47
2019-01-04T13:17:58.550Z,5.67
2019-01-04T13:21:01.545Z,4.62
2019-01-04T13:24:04.329Z,5.33
2019-01-04T13:27:07.370Z,5.60
2019-01-04T13:30:10.671Z,5.17
2019-01-04T13:33:13.704Z,3.98
2019-01-04T13:36:16.753Z,5.35
2019-01-04T13:39:19.273Z,4.10
2019-01-04T13:42:22.073Z,4.47
2019-01-04T13:45:25.100Z,4.78
2019-01-04T13:48:27.888Z,4.72
2019-01-04T13:51:30.663Z,3.52
2019-01-04T13:54:33.200Z,3.90
2019-01-04T13:57:35.975Z,3.90
2019-01-04T14:00:40.044Z,3.72
2019-01-04T14:03:42.824Z,3.58
2019-01-04T14:06:46.122Z,3.27
2019-01-04T14:09:49.161Z,3.83
2019-01-04T14:12:51.431Z,3.60
2019-01-04T14:15:48.968Z,3.12
2019-01-04T14:18:51.879Z,3.62
2019-01-04T14:21:54.664Z,2.80
2019-01-04T14:24:57.960Z,2.37
2019-01-04T14:28:00.492Z,2.00
2019-01-04T14:31:03.277Z,2.22
2019-01-04T14:34:05.800Z,2.10
2019-01-04T14:37:09.355Z,2.30
2019-01-04T14:40:12.141Z,2.17
2019-01-04T14:43:14.669Z,2.00
2019-01-04T14:46:18.214Z,2.30
2019-01-04T14:49:21.001Z,2.60
2019-01-04T14:52:24.559Z,2.30
2019-01-04T14:55:23.663Z,2.45
2019-01-04T14:58:26.790Z,2.10
2019-01-04T15:01:29.577Z,2.42
2019-01-04T15:04:33.385Z,1.92
2019-01-04T15:07:36.432Z,1.95
2019-01-04T15:10:39.720Z,2.20
2019-01-04T15:13:42.247Z,2.52
2019-01-04T15:16:45.033Z,1.98
2019-01-04T15:19:47.816Z,2.00
2019-01-04T15:22:50.349Z,2.22
2019-01-04T15:25:53.134Z,1.92
2019-01-04T15:28:55.916Z,2.17
2019-01-04T15:31:59.724Z,2.77
2019-01-04T15:35:03.278Z,2.17
2019-01-04T15:38:05.805Z,2.47
2019-01-04T15:41:08.859Z,2.35
2019-01-04T15:44:12.904Z,1.85
2019-01-04T15:47:16.201Z,2.40
2019-01-04T15:50:19.242Z,1.72
2019-01-04T15:53:23.314Z,2.25
2019-01-04T15:56:26.350Z,2.92
2019-01-04T15:59:28.872Z,3.65
2019-01-04T16:02:32.943Z,2.47
2019-01-04T16:05:35.721Z,2.12
2019-01-04T16:08:38.252Z,2.90
2019-01-04T16:11:41.287Z,2.10
2019-01-04T16:14:43.816Z,1.87
2019-01-04T16:17:46.601Z,2.40
2019-01-04T16:20:49.384Z,2.90
2019-01-04T16:23:52.169Z,3.40
2019-01-04T16:26:55.979Z,3.92
2019-01-04T16:29:59.016Z,4.35
2019-01-04T16:33:02.824Z,3.72
2019-01-04T16:36:05.864Z,7.10
2019-01-04T16:39:08.391Z,4.95
2019-01-04T16:42:13.226Z,4.12
2019-01-04T16:45:16.269Z,4.87
2019-01-04T16:48:20.076Z,3.77
2019-01-04T16:51:23.111Z,3.10
2019-01-04T16:54:26.152Z,3.10
2019-01-04T16:58:24.487Z,3.55
2019-01-04T17:01:27.529Z,3.22
2019-01-04T17:04:30.567Z,3.47
2019-01-04T17:07:33.353Z,3.55
2019-01-04T17:10:36.903Z,3.60
2019-01-04T17:13:39.444Z,3.67
2019-01-04T17:16:42.726Z,3.55
2019-01-04T17:19:45.283Z,3.30
2019-01-04T17:22:48.042Z,3.75
2019-01-04T17:25:50.312Z,3.37
2019-01-04T17:28:53.353Z,6.47
2019-01-04T17:31:57.166Z,3.42
2019-01-04T17:34:59.945Z,3.12
2019-01-04T17:37:58.536Z,4.60
2019-01-04T17:41:02.447Z,4.25
2019-01-04T17:44:05.484Z,3.42
2019-01-04T17:47:08.268Z,2.95
2019-01-04T17:50:11.305Z,4.62
2019-01-04T17:53:14.358Z,4.28
2019-01-04T17:56:17.368Z,5.37
2019-01-04T17:59:19.660Z,4.55
2019-01-04T18:02:22.443Z,4.65
2019-01-04T18:05:26.761Z,4.47
2019-01-04T18:08:29.290Z,5.10
2019-01-04T18:11:31.817Z,4.72
2019-01-04T18:14:34.600Z,5.05
2019-01-04T18:17:37.127Z,5.37
2019-01-04T18:20:48.109Z,5.42
2019-01-04T18:23:53.705Z,4.97
2019-01-04T18:26:52.398Z,3.75
2019-01-04T18:29:55.453Z,5.80
2019-01-04T18:32:56.291Z,5.47
2019-01-04T18:35:57.932Z,6.10
2019-01-04T18:39:00.973Z,5.17
2019-01-04T18:42:04.008Z,6.42
2019-01-04T18:45:06.790Z,3.72
2019-01-04T18:48:09.575Z,6.15
2019-01-04T18:51:12.361Z,5.08
2019-01-04T18:54:14.890Z,5.28
2019-01-04T18:57:17.673Z,5.72
2019-01-04T19:00:20.457Z,5.90
2019-01-04T19:03:22.988Z,6.45
2019-01-04T19:06:30.996Z,6.28
2019-01-04T19:09:29.065Z,4.92
2019-01-04T19:12:32.360Z,5.55
2019-01-04T19:15:35.146Z,5.53
2019-01-04T19:18:37.418Z,6.20
2019-01-04T19:21:39.942Z,6.15
2019-01-04T19:24:42.476Z,5.85
2019-01-04T19:27:45.512Z,6.22
2019-01-04T19:30:48.563Z,5.60
2019-01-04T19:33:51.340Z,10.80
2019-01-04T19:36:54.122Z,8.25
2019-01-04T19:39:56.650Z,6.92
2019-01-04T19:42:59.433Z,6.00
2019-01-04T19:46:03.242Z,9.00
2019-01-04T19:49:02.182Z,8.85
2019-01-04T19:52:04.973Z,6.58
2019-01-04T19:55:07.496Z,6.50
2019-01-04T19:58:11.567Z,7.92
2019-01-04T20:01:14.603Z,5.50
2019-01-04T20:04:17.130Z,7.12
2019-01-04T20:07:37.577Z,8.00
2019-01-04T20:11:03.658Z,6.97
2019-01-04T20:14:24.108Z,7.08
2019-01-04T20:17:27.402Z,5.70
2019-01-04T20:20:30.699Z,5.90
2019-01-04T20:23:33.484Z,6.58
2019-01-04T20:26:36.271Z,7.97
2019-01-04T20:29:39.062Z,7.22
2019-01-04T20:32:41.578Z,6.33
2019-01-04T20:35:45.139Z,6.28
2019-01-04T20:38:47.662Z,6.00
2019-01-04T20:41:46.862Z,8.30
2019-01-04T20:44:49.939Z,7.05
2019-01-04T20:47:52.942Z,6.12
2019-01-04T20:50:56.492Z,5.10
2019-01-04T20:53:59.279Z,6.08
2019-01-04T20:57:02.313Z,5.50
2019-01-04T21:00:05.096Z,6.22
2019-01-04T21:03:08.141Z,5.60
2019-01-04T21:06:11.435Z,6.30
2019-01-04T21:09:15.499Z,5.05
2019-01-04T21:12:18.279Z,5.05
2019-01-04T21:15:21.080Z,5.60
2019-01-04T21:18:25.133Z,5.00
2019-01-04T21:21:27.660Z,5.08
2019-01-04T21:24:30.951Z,6.37
2019-01-04T21:30:51.887Z,5.78
2019-01-04T21:33:54.410Z,4.28
2019-01-04T21:36:58.732Z,5.50
2019-01-04T21:40:02.285Z,5.58
2019-01-04T21:43:05.065Z,6.90
2019-01-04T21:46:08.365Z,6.05
2019-01-04T21:49:11.402Z,5.60
2019-01-04T21:52:15.467Z,5.75
2019-01-04T21:55:18.506Z,4.97
2019-01-04T21:58:23.336Z,4.03
2019-01-04T22:01:26.637Z,5.67
2019-01-04T22:04:29.161Z,6.83
2019-01-04T22:07:31.945Z,6.90
2019-01-04T22:10:34.995Z,5.37
2019-01-04T22:13:39.820Z,3.83
2019-01-04T22:16:42.860Z,6.40
2019-01-04T22:19:45.899Z,5.03
2019-01-04T22:22:49.197Z,6.87
2019-01-04T22:25:51.732Z,5.08
2019-01-04T22:28:55.531Z,5.30
2019-01-04T22:31:58.312Z,6.05
2019-01-04T22:38:16.425Z,5.42
2019-01-04T22:41:19.976Z,5.40
2019-01-04T22:44:22.762Z,6.47
2019-01-04T22:47:38.611Z,5.85
2019-01-04T22:50:41.639Z,6.12
2019-01-04T22:53:45.450Z,6.05
2019-01-04T22:56:48.497Z,5.85
2019-01-04T22:59:51.528Z,4.62
2019-01-04T23:02:54.060Z,6.08
2019-01-04T23:05:56.843Z,6.65
2019-01-04T23:08:59.878Z,5.83
2019-01-04T23:12:03.176Z,5.78
2019-01-04T23:15:06.221Z,6.17
2019-01-04T23:18:09.258Z,6.03
2019-01-04T23:21:12.047Z,6.40
2019-01-04T23:24:15.857Z,6.15
2019-01-04T23:27:18.637Z,6.40
2019-01-04T23:30:22.191Z,7.75
2019-01-04T23:33:21.210Z,6.70
2019-01-04T23:36:23.913Z,6.60
2019-01-04T23:39:26.712Z,7.22
2019-01-04T23:42:29.481Z,6.78
2019-01-04T23:45:32.265Z,8.28
2019-01-04T23:48:35.048Z,6.22
2019-01-04T23:51:38.356Z,6.87
2019-01-04T23:54:43.181Z,7.72
2019-01-04T23:57:47.240Z,8.78
